Time;durP1;ratioP1;P1;durP2;ratioP2;P2;SDS_P1;SDS_P2;PMS_P1;PMS_P2;Temp;Humidity;BMP_temperature;BMP_pressure;BME280_temperature;BME280_humidity;BME280_pressure;Samples;Min_cycle;Max_cycle;Signal;HPM_P1;HPM_P2
2022/09/26 00:00:33;;;;;;;10.05;8.48;;;;;;;10.20;100.00;163230.06;4990513;28;20044;-65
2022/09/26 00:02:58;;;;;;;10.13;8.55;;;;;;;10.15;100.00;163219.28;4991780;28;20022;-65
2022/09/26 00:05:23;;;;;;;12.85;8.75;;;;;;;10.12;100.00;163211.19;4990180;28;20034;-66
2022/09/26 00:07:49;;;;;;;10.95;9.82;;;;;;;10.10;100.00;163204.44;4991421;28;20026;-66
2022/09/26 00:10:14;;;;;;;12.93;9.35;;;;;;;10.10;100.00;163204.44;4990222;28;20035;-65
2022/09/26 00:12:39;;;;;;;14.68;9.05;;;;;;;10.13;100.00;163213.88;4991028;28;20390;-66
2022/09/26 00:15:05;;;;;;;10.90;9.32;;;;;;;10.14;100.00;163216.59;4991873;28;20027;-66
2022/09/26 00:17:31;;;;;;;11.45;8.90;;;;;;;10.14;100.00;163216.59;4990666;28;20034;-66
2022/09/26 00:19:56;;;;;;;11.35;10.32;;;;;;;10.14;100.00;163216.59;4991115;28;20035;-66
2022/09/26 00:22:21;;;;;;;10.82;9.38;;;;;;;10.08;100.00;163200.41;4989971;28;20039;-66
2022/09/26 00:24:47;;;;;;;12.60;10.75;;;;;;;10.07;100.00;163197.69;4991701;28;20030;-66
2022/09/26 00:27:12;;;;;;;15.52;9.35;;;;;;;10.04;100.00;163189.59;4989846;28;20048;-66
2022/09/26 00:29:37;;;;;;;10.30;9.20;;;;;;;10.03;100.00;163185.56;4989880;28;20622;-66
2022/09/26 00:32:03;;;;;;;13.77;10.63;;;;;;;10.10;100.00;163204.44;4991188;28;20046;-66
2022/09/26 00:34:28;;;;;;;14.32;8.43;;;;;;;10.07;100.00;163197.69;4989973;28;20049;-64
2022/09/26 00:36:54;;;;;;;16.23;9.50;;;;;;;10.08;100.00;163199.03;4991540;28;20038;-64
2022/09/26 00:39:19;;;;;;;17.50;8.82;;;;;;;10.09;100.00;163203.06;4989935;28;20046;-64
2022/09/26 00:41:45;;;;;;;11.43;9.70;;;;;;;10.13;100.00;163213.88;4991350;28;20085;-64
2022/09/26 00:44:35;;;;;;;11.32;9.00;;;;;;;10.15;100.00;163217.91;4989585;28;20114;-65
2022/09/26 00:47:02;;;;;;;10.43;9.05;;;;;;;10.21;100.00;163232.78;4991259;28;20022;-64
2022/09/26 00:49:33;;;;;;;13.65;8.23;;;;;;;10.24;100.00;163242.22;4989627;28;20402;-64
2022/09/26 00:52:19;;;;;;;9.73;8.48;;;;;;;10.26;100.00;163246.25;4991199;28;20060;-65
2022/09/26 00:54:50;;;;;;;12.68;7.55;;;;;;;10.27;100.00;163248.97;4990004;28;20569;-64
2022/09/26 00:57:21;;;;;;;14.73;7.65;;;;;;;10.25;100.00;163244.94;4990869;28;20478;-64
2022/09/26 00:59:55;;;;;;;9.32;7.80;;;;;;;10.26;100.00;163247.63;4990040;28;20510;-65
2022/09/26 01:02:22;;;;;;;9.80;8.07;;;;;;;10.24;100.00;163240.91;4990949;28;20498;-65
2022/09/26 01:04:47;;;;;;;13.73;7.78;;;;;;;10.21;100.00;163232.78;4989492;28;20046;-65
2022/09/26 01:07:17;;;;;;;11.73;8.63;;;;;;;10.22;100.00;163236.81;4991084;28;20027;-65
2022/09/26 01:09:43;;;;;;;10.80;7.80;;;;;;;10.24;100.00;163240.91;4990045;28;20101;-65
2022/09/26 01:12:09;;;;;;;16.50;8.30;;;;;;;10.26;100.00;163246.25;4990684;28;20445;-65
2022/09/26 01:14:36;;;;;;;12.95;8.45;;;;;;;10.22;100.00;163235.47;4989792;28;20046;-65
2022/09/26 01:17:02;;;;;;;12.18;7.50;;;;;;;10.26;100.00;163246.25;4990654;28;20495;-65
2022/09/26 01:19:57;;;;;;;31.05;8.52;;;;;;;10.23;100.00;163238.19;4992096;28;20042;-65
2022/09/26 01:22:56;;;;;;;9.35;8.38;;;;;;;10.23;100.00;163238.19;4994802;28;20037;-65
2022/09/26 01:25:34;;;;;;;14.07;7.35;;;;;;;10.21;100.00;163232.78;4993027;28;20047;-66
2022/09/26 01:28:18;;;;;;;;;;;;;;;10.22;100.00;163236.81;4994630;28;20034;-65
2022/09/26 01:30:53;;;;;;;9.35;7.35;;;;;;;-146.58;100.00;69501.63;4993156;28;20043;-65
2022/09/26 01:33:26;;;;;;;9.40;7.28;;;;;;;-146.58;100.00;69501.63;4992865;28;20454;-66
2022/09/26 01:36:03;;;;;;;12.15;7.63;;;;;;;-146.58;100.00;69501.63;4994468;28;20062;-63
2022/09/26 01:38:41;;;;;;;8.00;7.03;;;;;;;-146.58;100.00;69501.63;4993329;28;20043;-63
2022/09/26 01:41:27;;;;;;;11.52;8.05;;;;;;;-146.58;100.00;69501.63;4994302;28;20034;-63
2022/09/26 01:44:14;;;;;;;11.77;7.40;;;;;;;-146.58;100.00;69501.63;4992906;28;20125;-64
2022/09/26 01:46:40;;;;;;;9.45;8.50;;;;;;;-146.58;100.00;69501.63;4994183;28;20675;-64
2022/09/26 01:49:21;;;;;;;10.52;7.60;;;;;;;-146.58;100.00;69501.63;4992159;28;20152;-60
2022/09/26 01:51:50;;;;;;;11.82;8.10;;;;;;;-146.58;100.00;69501.63;4994250;28;20022;-61
2022/09/26 01:54:30;;;;;;;12.57;7.85;;;;;;;-146.58;100.00;69501.63;4992526;28;20054;-61
2022/09/26 01:56:58;;;;;;;10.00;6.88;;;;;;;-146.58;100.00;69501.63;4993812;28;20031;-60
2022/09/26 01:59:33;;;;;;;9.48;6.85;;;;;;;-146.58;100.00;69501.63;4992461;28;20445;-61
2022/09/26 02:02:05;;;;;;;11.70;7.68;;;;;;;-146.58;100.00;69501.63;4993899;28;20080;-61
2022/09/26 02:04:37;;;;;;;8.35;6.72;;;;;;;-146.58;100.00;69501.63;4992041;28;20497;-60
2022/09/26 02:07:18;;;;;;;8.63;6.80;;;;;;;10.74;100.00;163371.84;4993769;28;20415;-61
2022/09/26 02:09:49;;;;;;;8.10;6.43;;;;;;;10.73;100.00;163370.50;4992672;28;20425;-61
2022/09/26 02:12:25;;;;;;;17.25;6.03;;;;;;;10.67;100.00;163352.94;4993346;28;20030;-60
2022/09/26 02:14:55;;;;;;;10.75;6.72;;;;;;;10.66;100.00;163351.59;4992499;28;20433;-62
2022/09/26 02:17:27;;;;;;;6.35;5.80;;;;;;;10.72;100.00;163367.78;4993411;28;20080;-62
2022/09/26 02:20:02;;;;;;;6.85;6.22;;;;;;;10.83;100.00;163394.81;4992115;28;20042;-65
2022/09/26 02:22:34;;;;;;;9.85;7.28;;;;;;;10.84;100.00;163397.47;4993569;28;20034;-64
2022/09/26 02:25:00;;;;;;;10.75;7.45;;;;;;;10.83;100.00;163394.81;4992180;28;20046;-64
2022/09/26 02:27:26;;;;;;;8.90;7.15;;;;;;;10.85;100.00;163400.19;4993057;28;20045;-64
2022/09/26 02:29:53;;;;;;;15.32;7.88;;;;;;;10.81;100.00;163390.72;4990976;28;20092;-64
2022/09/26 02:32:28;;;;;;;9.18;7.75;;;;;;;10.82;100.00;163392.09;4993170;28;20069;-65
2022/09/26 02:34:55;;;;;;;10.95;6.97;;;;;;;10.79;100.00;163385.38;4991738;28;20073;-64
2022/09/26 02:37:21;;;;;;;8.05;6.75;;;;;;;10.76;100.00;163377.25;4993096;28;20525;-65
2022/09/26 02:39:48;;;;;;;10.10;7.88;;;;;;;10.77;100.00;163379.94;4991981;28;20038;-66
2022/09/26 02:42:23;;;;;;;8.90;6.28;;;;;;;10.81;100.00;163389.41;4992509;28;20066;-66
2022/09/26 02:44:59;;;;;;;8.27;5.97;;;;;;;10.82;100.00;163393.44;4991729;28;20038;-66
2022/09/26 02:47:27;;;;;;;8.63;7.25;;;;;;;10.84;100.00;163397.47;4993037;28;20117;-66
2022/09/26 02:50:11;;;;;;;8.50;6.68;;;;;;;10.83;100.00;163394.81;4991366;28;20629;-66
2022/09/26 02:52:52;;;;;;;16.77;5.80;;;;;;;10.85;100.00;163400.19;4993130;28;20030;-66
2022/09/26 02:55:27;;;;;;;9.68;6.30;;;;;;;10.80;100.00;163388.03;4991033;28;20049;-66
2022/09/26 02:58:34;;;;;;;8.07;6.15;;;;;;;10.82;100.00;163393.44;4993157;28;20033;-66
2022/09/26 03:01:09;;;;;;;9.05;6.32;;;;;;;10.76;100.00;163378.56;4991532;28;20105;-66
2022/09/26 03:03:42;;;;;;;11.50;6.75;;;;;;;10.75;100.00;163374.53;4991096;28;20022;-65
2022/09/26 03:06:12;;;;;;;11.70;8.35;;;;;;;10.68;100.00;163357.03;4992491;28;20033;-65
2022/09/26 03:08:42;;;;;;;7.65;6.95;;;;;;;10.68;100.00;163357.03;4991283;28;20035;-63
2022/09/26 03:11:10;;;;;;;16.92;8.40;;;;;;;10.66;100.00;163351.59;4992263;28;20053;-64
2022/09/26 03:13:37;;;;;;;7.90;7.13;;;;;;;10.67;100.00;163352.94;4990822;28;20105;-64
2022/09/26 03:16:05;;;;;;;12.38;7.88;;;;;;;10.61;100.00;163339.44;4992504;28;20026;-63
2022/09/26 03:18:53;;;;;;;8.63;6.43;;;;;;;10.64;100.00;163346.19;4990634;28;20023;-62
2022/09/26 03:21:19;;;;;;;8.60;7.07;;;;;;;10.69;100.00;163359.66;4990954;28;20050;-62
2022/09/26 03:23:44;;;;;;;8.40;7.25;;;;;;;10.68;100.00;163357.03;4991403;28;20034;-61
2022/09/26 03:26:14;;;;;;;13.75;7.45;;;;;;;10.69;100.00;163359.66;4991755;28;20061;-61
2022/09/26 03:28:40;;;;;;;9.65;6.97;;;;;;;10.72;100.00;163367.78;4991133;28;20646;-61
2022/09/26 03:31:06;;;;;;;11.98;7.28;;;;;;;10.62;100.00;163340.78;4992186;28;20046;-64
2022/09/26 03:33:31;;;;;;;7.32;6.68;;;;;;;10.74;100.00;163373.22;4990566;28;20030;-63
2022/09/26 03:35:59;;;;;;;16.67;7.13;;;;;;;10.78;100.00;163384.00;4992521;28;20466;-63
2022/09/26 03:38:25;;;;;;;8.63;6.20;;;;;;;10.77;100.00;163381.28;4990656;28;20057;-63
2022/09/26 03:40:51;;;;;;;9.45;8.45;;;;;;;10.75;100.00;163375.91;4991794;28;20030;-61
2022/09/26 03:43:16;;;;;;;7.88;6.10;;;;;;;10.73;100.00;163370.50;4990454;28;20072;-62
2022/09/26 03:45:42;;;;;;;15.65;8.43;;;;;;;10.75;100.00;163374.53;4992227;28;20034;-64
2022/09/26 03:48:07;;;;;;;8.95;6.65;;;;;;;10.71;100.00;163365.09;4991487;28;20026;-61
2022/09/26 03:50:33;;;;;;;7.30;6.60;;;;;;;10.81;100.00;163389.41;4990557;28;20498;-64
2022/09/26 03:52:59;;;;;;;8.50;6.55;;;;;;;10.84;100.00;163397.47;4991989;28;20382;-62
2022/09/26 03:55:25;;;;;;;6.50;5.90;;;;;;;10.81;100.00;163389.41;4990333;28;20150;-62
2022/09/26 03:57:50;;;;;;;12.15;5.95;;;;;;;10.88;100.00;163409.63;4992270;28;20462;-62
2022/09/26 04:00:16;;;;;;;13.57;6.75;;;;;;;10.88;100.00;163408.28;4990349;28;20060;-61
2022/09/26 04:02:42;;;;;;;10.32;6.03;;;;;;;10.86;100.00;163402.88;4991428;28;20054;-62
2022/09/26 04:05:08;;;;;;;9.05;7.38;;;;;;;10.90;100.00;163413.72;4990122;28;20093;-62
2022/09/26 04:07:33;;;;;;;7.25;5.82;;;;;;;10.86;100.00;163402.88;4991565;28;20034;-63
2022/09/26 04:09:58;;;;;;;6.75;5.82;;;;;;;10.85;100.00;163400.19;4989780;28;20053;-62
2022/09/26 04:12:24;;;;;;;8.35;5.45;;;;;;;10.85;100.00;163400.19;4991671;28;20041;-63
2022/09/26 04:14:49;;;;;;;14.18;7.05;;;;;;;10.79;100.00;163386.69;4990276;28;20039;-63
2022/09/26 04:17:15;;;;;;;8.77;5.68;;;;;;;10.81;100.00;163389.41;4991207;28;20029;-64
2022/09/26 04:19:41;;;;;;;10.02;6.95;;;;;;;10.81;100.00;163389.41;4990350;28;20046;-67
2022/09/26 04:22:08;;;;;;;9.93;5.07;;;;;;;10.81;100.00;163389.41;4991486;28;20022;-64
2022/09/26 04:24:34;;;;;;;8.43;6.67;;;;;;;10.78;100.00;163382.66;4989827;28;20042;-64
2022/09/26 04:26:59;;;;;;;9.93;6.88;;;;;;;10.76;100.00;163378.56;4991448;28;20512;-66
2022/09/26 04:29:26;;;;;;;12.57;6.95;;;;;;;10.76;100.00;163377.25;4990183;28;20038;-65
2022/09/26 04:31:51;;;;;;;9.40;6.80;;;;;;;10.74;100.00;163373.22;4991247;28;20129;-66
2022/09/26 04:34:17;;;;;;;9.57;7.35;;;;;;;10.68;100.00;163357.03;4990151;28;20418;-65
2022/09/26 04:36:42;;;;;;;8.27;5.75;;;;;;;10.61;100.00;163339.44;4991543;28;20033;-65
2022/09/26 04:39:08;;;;;;;9.15;6.00;;;;;;;10.55;100.00;163321.88;4989454;28;20383;-65
2022/09/26 04:41:34;;;;;;;10.95;7.03;;;;;;;10.50;100.00;163308.41;4991836;28;20037;-64
2022/09/26 04:44:00;;;;;;;9.30;7.30;;;;;;;10.44;100.00;163293.53;4989858;28;20038;-66
2022/09/26 04:46:27;;;;;;;12.70;7.63;;;;;;;10.37;100.00;163276.03;4991241;28;20031;-64
2022/09/26 04:48:56;;;;;;;11.30;7.85;;;;;;;10.34;100.00;163267.84;4990054;28;20044;-64
2022/09/26 04:51:24;;;;;;;11.25;7.30;;;;;;;10.38;100.00;163278.72;4990801;28;20105;-60
2022/09/26 04:53:50;;;;;;;9.85;6.57;;;;;;;10.34;100.00;163266.53;4991374;28;20552;-63
2022/09/26 04:56:18;;;;;;;7.65;6.40;;;;;;;10.29;100.00;163254.38;4994961;28;20046;-63
2022/09/26 04:58:44;;;;;;;10.35;6.53;;;;;;;10.20;100.00;163230.06;4993760;28;20039;-62
2022/09/26 05:01:12;;;;;;;9.20;6.90;;;;;;;10.21;100.00;163234.09;4993740;28;20498;-63
2022/09/26 05:03:38;;;;;;;8.00;6.25;;;;;;;10.20;100.00;163231.41;4993720;28;20062;-63
2022/09/26 05:06:06;;;;;;;10.48;8.13;;;;;;;-146.58;100.00;69501.63;4994825;28;20370;-63
2022/09/26 05:08:32;;;;;;;24.58;10.65;;;;;;;-146.58;100.00;69501.63;4992572;28;20030;-60
2022/09/26 05:10:57;;;;;;;7.70;6.00;;;;;;;-146.58;100.00;69501.63;4994246;28;20030;-60
2022/09/26 05:13:24;;;;;;;10.30;6.80;;;;;;;-146.58;100.00;69501.63;4992766;28;20481;-61
2022/09/26 05:15:53;;;;;;;6.97;6.03;;;;;;;-146.58;100.00;69501.63;4994804;28;20097;-64
2022/09/26 05:18:18;;;;;;;9.55;7.00;;;;;;;-146.58;100.00;69501.63;4991973;28;20918;-63
2022/09/26 05:20:46;;;;;;;8.35;7.28;;;;;;;-146.58;100.00;69501.63;4991272;28;20026;-62
2022/09/26 05:23:13;;;;;;;9.65;6.93;;;;;;;-146.58;100.00;69501.63;5003835;28;20034;-62
2022/09/26 05:28:25;;;;;;;8.70;5.00;;;;;;;-146.58;100.00;69501.63;4973713;28;20089;-62
2022/09/26 05:30:51;;;;;;;9.38;7.57;;;;;;;-146.58;100.00;69501.63;4981822;28;20061;-59
2022/09/26 05:33:18;;;;;;;10.10;6.93;;;;;;;-146.58;100.00;69501.63;4991819;28;20034;-56
2022/09/26 05:35:43;;;;;;;9.90;5.45;;;;;;;-146.58;100.00;69501.63;4994462;28;20022;-58
2022/09/26 05:38:09;;;;;;;9.27;6.75;;;;;;;-146.58;100.00;69501.63;4993540;28;20072;-59
2022/09/26 05:43:18;;;;;;;8.65;5.13;;;;;;;-146.58;100.00;69501.63;4982071;28;20045;-58
2022/09/26 05:45:49;;;;;;;8.35;6.95;;;;;;;-146.58;100.00;69501.63;4993931;28;20393;-58
2022/09/26 05:48:16;;;;;;;8.48;5.20;;;;;;;-146.58;100.00;69501.63;4993241;28;20478;-58
2022/09/26 05:50:42;;;;;;;9.38;6.10;;;;;;;-146.58;100.00;69501.63;4991558;28;20054;-58
2022/09/26 05:53:07;;;;;;;7.90;5.70;;;;;;;-146.58;100.00;69501.63;4993450;28;20493;-59
2022/09/26 05:55:33;;;;;;;14.02;6.15;;;;;;;-146.58;100.00;69501.63;4992703;28;20043;-58
2022/09/26 05:57:58;;;;;;;10.50;6.32;;;;;;;-146.58;100.00;69501.63;4993185;28;20496;-59
2022/09/26 06:00:26;;;;;;;7.68;6.80;;;;;;;-146.58;100.00;69501.63;4992291;28;20414;-58
2022/09/26 06:03:02;;;;;;;6.88;5.03;;;;;;;-146.58;100.00;69501.63;4993317;28;20164;-58
2022/09/26 06:05:28;;;;;;;12.68;7.72;;;;;;;-146.58;100.00;69501.63;4991881;28;20413;-58
2022/09/26 06:07:54;;;;;;;10.48;4.93;;;;;;;-146.58;100.00;69501.63;4992810;28;20026;-59
2022/09/26 06:10:20;;;;;;;14.32;5.55;;;;;;;-146.58;100.00;69501.63;4991838;28;20046;-58
2022/09/26 06:12:45;;;;;;;9.20;5.80;;;;;;;-146.58;100.00;69501.63;4993639;28;20088;-59
2022/09/26 06:15:11;;;;;;;10.90;7.43;;;;;;;-146.58;100.00;69501.63;4990753;28;20046;-58
2022/09/26 06:17:37;;;;;;;5.00;4.50;;;;;;;-146.58;100.00;69501.63;4993817;28;20475;-58
2022/09/26 06:20:04;;;;;;;8.13;4.57;;;;;;;-146.58;100.00;69501.63;4991702;28;20034;-59
2022/09/26 06:22:32;;;;;;;6.03;4.40;;;;;;;-146.58;100.00;69501.63;4993460;28;20417;-58
2022/09/26 06:24:58;;;;;;;13.63;6.05;;;;;;;-146.58;100.00;69501.63;4998947;28;20038;-59
2022/09/26 06:27:24;;;;;;;11.15;5.13;;;;;;;-146.58;100.00;69501.63;4994560;28;20137;-59
2022/09/26 06:29:49;;;;;;;4.57;4.15;;;;;;;-146.58;100.00;69501.63;5011670;28;20042;-60
2022/09/26 06:32:15;;;;;;;14.27;5.80;;;;;;;-146.58;100.00;69501.63;5009185;28;20410;-59
2022/09/26 06:34:40;;;;;;;7.95;4.95;;;;;;;-146.58;100.00;69501.63;4991656;28;20092;-59
2022/09/26 06:37:05;;;;;;;8.93;4.32;;;;;;;-146.58;100.00;69501.63;4992922;28;20026;-59
2022/09/26 06:39:34;;;;;;;16.90;5.65;;;;;;;-146.58;100.00;69501.63;4991458;28;20038;-59
2022/09/26 06:42:00;;;;;;;8.85;4.40;;;;;;;-146.58;100.00;69501.63;4991774;28;20470;-60
2022/09/26 06:44:25;;;;;;;8.57;5.13;;;;;;;-146.58;100.00;69501.63;4991572;28;20100;-59
2022/09/26 06:46:51;;;;;;;6.97;4.07;;;;;;;-146.58;100.00;69501.63;4992599;28;20436;-59
2022/09/26 06:49:16;;;;;;;10.05;5.93;;;;;;;-146.58;100.00;69501.63;4991166;28;20038;-59
2022/09/26 06:51:41;;;;;;;9.75;5.22;;;;;;;-146.58;100.00;69501.63;4992912;28;20046;-60
2022/09/26 06:54:07;;;;;;;10.13;5.95;;;;;;;-146.58;100.00;69501.63;4990612;28;20049;-59
2022/09/26 06:56:32;;;;;;;8.05;5.10;;;;;;;-146.58;100.00;69501.63;4992838;28;20042;-59
2022/09/26 06:58:57;;;;;;;10.23;5.78;;;;;;;-146.58;100.00;69501.63;4990921;28;20046;-60
2022/09/26 07:01:23;;;;;;;12.35;5.78;;;;;;;-146.58;100.00;69501.63;4991927;28;20030;-60
2022/09/26 07:03:48;;;;;;;9.23;6.07;;;;;;;-146.58;100.00;69501.63;4991638;28;20038;-60
2022/09/26 07:06:13;;;;;;;6.70;4.70;;;;;;;-146.58;100.00;69501.63;4992273;28;20034;-59
2022/09/26 07:08:39;;;;;;;7.22;6.53;;;;;;;-146.58;100.00;69501.63;4990803;28;20405;-60
2022/09/26 07:11:05;;;;;;;6.45;5.35;;;;;;;-146.58;100.00;69501.63;4992173;28;20027;-60
2022/09/26 07:13:30;;;;;;;8.77;5.45;;;;;;;-146.58;100.00;69501.63;4990962;28;20037;-60
2022/09/26 07:15:59;;;;;;;9.82;5.28;;;;;;;-146.58;100.00;69501.63;4991581;28;20548;-60
2022/09/26 07:18:24;;;;;;;20.02;7.72;;;;;;;-146.58;100.00;69501.63;4991337;28;20371;-60
2022/09/26 07:20:52;;;;;;;11.15;5.03;;;;;;;-146.58;100.00;69501.63;4991876;28;20029;-60
2022/09/26 07:23:17;;;;;;;9.88;5.45;;;;;;;-146.58;100.00;69501.63;4990820;28;20034;-59
2022/09/26 07:25:45;;;;;;;7.15;4.70;;;;;;;-146.58;100.00;69501.63;4992441;28;20048;-59
2022/09/26 07:28:10;;;;;;;7.47;5.32;;;;;;;-146.58;100.00;69501.63;4991883;28;20534;-60
2022/09/26 07:30:36;;;;;;;8.48;4.47;;;;;;;-146.58;100.00;69501.63;4990420;28;20133;-59
2022/09/26 07:33:03;;;;;;;11.85;5.03;;;;;;;-146.58;100.00;69501.63;4991922;28;20034;-60
2022/09/26 07:35:30;;;;;;;12.45;5.93;;;;;;;-146.58;100.00;69501.63;4990727;28;20046;-59
2022/09/26 07:37:55;;;;;;;9.95;4.90;;;;;;;-146.58;100.00;69501.63;4990972;28;20034;-60
2022/09/26 07:40:21;;;;;;;4.75;4.13;;;;;;;-146.58;100.00;69501.63;4989719;28;20046;-60
2022/09/26 07:42:47;;;;;;;15.32;5.15;;;;;;;-146.58;100.00;69501.63;4991053;28;20033;-59
2022/09/26 07:45:12;;;;;;;12.68;6.05;;;;;;;-146.58;100.00;69501.63;4990095;28;20099;-60
2022/09/26 07:50:21;;;;;;;14.02;5.47;;;;;;;-146.58;100.00;69501.63;4990156;28;20065;-59
2022/09/26 07:52:49;;;;;;;11.50;5.13;;;;;;;-146.58;100.00;69501.63;4991844;28;20470;-59
2022/09/26 07:55:25;;;;;;;5.90;4.53;;;;;;;-146.58;100.00;69501.63;5006370;28;20045;-60
2022/09/26 07:57:50;;;;;;;10.57;5.57;;;;;;;-146.58;100.00;69501.63;5011614;28;20425;-59
2022/09/26 08:00:18;;;;;;;8.35;4.32;;;;;;;10.23;100.00;163238.19;5009479;28;20041;-59
2022/09/26 08:02:45;;;;;;;11.05;5.70;;;;;;;11.59;100.00;163594.63;4994263;28;20035;-59
2022/09/26 08:05:16;;;;;;;8.60;4.85;;;;;;;11.68;100.00;163618.94;4988550;28;20061;-60
2022/09/26 08:07:41;;;;;;;5.68;3.75;;;;;;;11.65;100.00;163610.88;4988996;28;20034;-60
2022/09/26 08:10:17;;;;;;;4.50;3.63;;;;;;;11.67;100.00;163614.91;4975158;28;20042;-59
2022/09/26 08:12:43;;;;;;;9.57;4.40;;;;;;;11.69;100.00;163621.66;4972675;28;20033;-59
2022/09/26 08:15:08;;;;;;;8.05;5.65;;;;;;;11.71;100.00;163627.06;4976980;28;20042;-59
2022/09/26 08:17:34;;;;;;;7.80;4.80;;;;;;;11.67;100.00;163616.22;4991743;28;20022;-59
2022/09/26 08:20:00;;;;;;;8.93;5.07;;;;;;;11.54;100.00;163581.13;4975428;28;20132;-59
2022/09/26 08:22:26;;;;;;;10.20;4.55;;;;;;;11.57;100.00;163589.25;4971960;28;20049;-59
2022/09/26 08:24:52;;;;;;;7.72;4.10;;;;;;;11.58;100.00;163591.91;4970765;28;20042;-59
2022/09/26 08:27:17;;;;;;;7.10;4.50;;;;;;;-146.58;100.00;69501.63;4971973;28;20023;-59
2022/09/26 08:29:47;;;;;;;16.65;6.93;;;;;;;-146.58;100.00;69501.63;4973630;28;20054;-60
2022/09/26 08:32:12;;;;;;;9.95;5.43;;;;;;;-146.58;100.00;69501.63;4975904;28;20414;-59
2022/09/26 08:34:39;;;;;;;8.77;4.72;;;;;;;-146.58;100.00;69501.63;4974832;28;20081;-58
2022/09/26 08:37:05;;;;;;;8.00;5.50;;;;;;;-146.58;100.00;69501.63;4975883;28;20031;-59
2022/09/26 08:39:31;;;;;;;11.10;5.18;;;;;;;-146.58;100.00;69501.63;4993677;28;20104;-59
2022/09/26 08:42:22;;;;;;;5.97;5.38;;;;;;;-146.58;100.00;69501.63;4995157;28;20104;-59
2022/09/26 08:46:24;;;;;;;8.38;4.32;;;;;;;-146.58;100.00;69501.63;4974288;28;20047;-58
2022/09/26 08:48:00;;;;;;;7.88;5.15;;;;;;;-146.58;100.00;69501.63;4995013;28;20035;-58
2022/09/26 08:50:48;;;;;;;6.40;5.60;;;;;;;-146.58;100.00;69501.63;4993618;28;20125;-59
2022/09/26 08:53:22;;;;;;;11.15;5.10;;;;;;;-146.58;100.00;69501.63;4995195;28;20034;-58
2022/09/26 08:55:48;;;;;;;7.07;4.45;;;;;;;-146.58;100.00;69501.63;4994001;28;20039;-58
2022/09/26 08:58:18;;;;;;;8.40;4.82;;;;;;;-146.58;100.00;69501.63;4994636;28;20360;-58
2022/09/26 09:00:46;;;;;;;15.05;4.85;;;;;;;-146.58;100.00;69501.63;4993881;28;20085;-59
2022/09/26 09:03:17;;;;;;;7.68;5.20;;;;;;;-146.58;100.00;69501.63;4995081;28;20076;-59
2022/09/26 09:05:47;;;;;;;10.23;5.53;;;;;;;-146.58;100.00;69501.63;4993044;28;20046;-59
2022/09/26 09:08:20;;;;;;;10.00;5.15;;;;;;;-146.58;100.00;69501.63;4994878;28;20106;-59
2022/09/26 09:11:18;;;;;;;11.02;4.65;;;;;;;-146.58;100.00;69501.63;4994031;28;20053;-58
2022/09/26 09:14:03;;;;;;;6.63;4.27;;;;;;;-146.58;100.00;69501.63;4970265;28;20042;-59
2022/09/26 09:17:06;;;;;;;6.22;5.28;;;;;;;-146.58;100.00;69501.63;4994987;28;20034;-58
2022/09/26 09:19:56;;;;;;;9.93;5.07;;;;;;;-146.58;100.00;69501.63;4993545;28;20038;-59
2022/09/26 09:22:45;;;;;;;9.88;4.80;;;;;;;-146.58;100.00;69501.63;4994074;28;20481;-59
2022/09/26 09:25:58;;;;;;;6.60;4.30;;;;;;;-146.58;100.00;69501.63;4993068;28;20465;-59
2022/09/26 09:28:29;;;;;;;9.73;4.97;;;;;;;-146.58;100.00;69501.63;4991922;28;20030;-59
2022/09/26 09:30:58;;;;;;;9.68;4.35;;;;;;;-146.58;100.00;69501.63;4994535;28;20551;-59
2022/09/26 09:33:28;;;;;;;6.78;4.70;;;;;;;-146.58;100.00;69501.63;4996610;28;20025;-59
2022/09/26 09:36:22;;;;;;;7.35;5.55;;;;;;;-146.58;100.00;69501.63;4996409;28;20463;-59
2022/09/26 09:38:49;;;;;;;12.48;5.50;;;;;;;-146.58;100.00;69501.63;4984414;28;20061;-59
2022/09/26 09:41:30;;;;;;;6.68;5.40;;;;;;;-146.58;100.00;69501.63;4993706;28;20030;-59
2022/09/26 09:44:01;;;;;;;7.03;4.40;;;;;;;-146.58;100.00;69501.63;4991906;28;20046;-59
2022/09/26 09:46:41;;;;;;;7.57;4.38;;;;;;;-146.58;100.00;69501.63;4994768;28;20022;-58
2022/09/26 09:49:06;;;;;;;12.95;5.53;;;;;;;-146.58;100.00;69501.63;4992007;28;20061;-59
2022/09/26 09:51:50;;;;;;;11.32;5.68;;;;;;;-146.58;100.00;69501.63;4994008;28;20113;-59
2022/09/26 09:54:46;;;;;;;8.77;4.78;;;;;;;-146.58;100.00;69501.63;4992843;28;20038;-59
2022/09/26 09:57:36;;;;;;;12.27;7.00;;;;;;;-146.58;100.00;69501.63;4993885;28;20026;-59
2022/09/26 10:00:15;;;;;;;12.25;6.20;;;;;;;-146.58;100.00;69501.63;4992239;28;20129;-59
2022/09/26 10:03:07;;;;;;;6.70;4.80;;;;;;;-146.58;100.00;69501.63;4994039;28;20029;-59
2022/09/26 10:05:52;;;;;;;9.95;5.43;;;;;;;-146.58;100.00;69501.63;4961715;28;20055;-59
2022/09/26 10:08:21;;;;;;;7.25;3.92;;;;;;;-146.58;100.00;69501.63;4975903;28;20025;-57
2022/09/26 10:11:21;;;;;;;7.03;4.78;;;;;;;-146.58;100.00;69501.63;4994019;28;20483;-59
2022/09/26 10:13:51;;;;;;;9.02;4.60;;;;;;;-146.58;100.00;69501.63;4992436;28;20034;-59
2022/09/26 10:16:16;;;;;;;9.18;5.78;;;;;;;-146.58;100.00;69501.63;4993272;28;20049;-59
2022/09/26 10:18:55;;;;;;;6.22;4.63;;;;;;;-146.58;100.00;69501.63;4992447;28;20038;-59
2022/09/26 10:21:31;;;;;;;15.38;6.13;;;;;;;-146.58;100.00;69501.63;4993104;28;20034;-59
2022/09/26 10:23:57;;;;;;;7.78;5.63;;;;;;;-146.58;100.00;69501.63;4992477;28;20030;-59
2022/09/26 10:26:25;;;;;;;9.27;5.38;;;;;;;-146.58;100.00;69501.63;4993282;28;20037;-59
2022/09/26 10:28:54;;;;;;;4.97;4.55;;;;;;;-146.58;100.00;69501.63;4991844;28;20532;-59
2022/09/26 10:31:29;;;;;;;7.45;5.78;;;;;;;12.46;100.00;163821.66;4993108;28;20092;-59
2022/09/26 10:33:59;;;;;;;3.80;3.42;;;;;;;12.38;100.00;163802.75;4992192;28;20042;-59
2022/09/26 10:36:35;;;;;;;6.07;4.75;;;;;;;12.29;100.00;163778.41;4992952;28;20030;-59
2022/09/26 10:42:03;;;;;;;7.75;4.35;;;;;;;12.00;100.00;163702.75;4992273;28;20117;-58
2022/09/26 10:44:33;;;;;;;10.05;4.97;;;;;;;11.94;100.00;163686.50;4991845;28;20050;-60
2022/09/26 10:47:07;;;;;;;13.48;5.82;;;;;;;11.95;100.00;163687.84;4992735;28;20031;-60
2022/09/26 10:50:00;;;;;;;10.20;5.32;;;;;;;11.91;100.00;163678.38;4991770;28;20101;-59
2022/09/26 10:52:32;;;;;;;14.68;6.40;;;;;;;11.84;100.00;163659.47;4991978;28;20109;-59
2022/09/26 10:55:04;;;;;;;12.88;4.60;;;;;;;11.84;100.00;163660.81;4988024;28;20560;-59
2022/09/26 10:57:44;;;;;;;11.38;5.07;;;;;;;11.91;100.00;163679.72;4992657;28;20026;-60
2022/09/26 11:00:17;;;;;;;9.65;5.40;;;;;;;11.93;100.00;163683.81;4991444;28;20038;-59
2022/09/26 11:02:45;;;;;;;7.40;4.70;;;;;;;-146.58;100.00;69501.63;4993276;28;20093;-59
2022/09/26 11:08:04;;;;;;;9.13;4.47;;;;;;;-146.58;100.00;69501.63;4992141;28;20041;-59
2022/09/26 11:10:35;;;;;;;10.18;4.63;;;;;;;-146.58;100.00;69501.63;4990994;28;20047;-59
2022/09/26 11:13:37;;;;;;;10.38;4.78;;;;;;;-146.58;100.00;69501.63;4992153;28;20028;-59
2022/09/26 11:16:06;;;;;;;7.35;4.35;;;;;;;-146.58;100.00;69501.63;4968796;28;20138;-59
2022/09/26 11:18:41;;;;;;;11.27;6.05;;;;;;;-146.58;100.00;69501.63;4971653;28;20546;-59
2022/09/26 11:21:17;;;;;;;5.03;4.50;;;;;;;-146.58;100.00;69501.63;4973061;28;20045;-59
2022/09/26 11:24:01;;;;;;;9.50;4.82;;;;;;;-146.58;100.00;69501.63;4971914;28;20035;-59
2022/09/26 11:26:47;;;;;;;10.18;5.47;;;;;;;-146.58;100.00;69501.63;4973099;28;20038;-59
2022/09/26 11:29:33;;;;;;;8.75;5.57;;;;;;;-146.58;100.00;69501.63;4971451;28;20762;-59
2022/09/26 11:31:59;;;;;;;13.20;7.28;;;;;;;-146.58;100.00;69501.63;4972805;28;20053;-59
2022/09/26 11:34:28;;;;;;;11.52;7.10;;;;;;;-146.58;100.00;69501.63;4971235;28;20026;-59
2022/09/26 11:37:02;;;;;;;6.78;5.60;;;;;;;-146.58;100.00;69501.63;4972916;28;20029;-58
2022/09/26 11:39:57;;;;;;;7.38;6.68;;;;;;;-146.58;100.00;69501.63;4973009;28;20023;-59